sensor_id;sensor_type;location;lat;lon;timestamp;P1;durP1;ratioP1;P2;durP2;ratioP2
1174;SDS011;576;48.418;10.074;2023-02-18T00:01:24;1.70;;;1.60;;
1174;SDS011;576;48.418;10.074;2023-02-18T00:03:55;3.03;;;1.63;;
1174;SDS011;576;48.418;10.074;2023-02-18T00:06:27;2.93;;;1.90;;
1174;SDS011;576;48.418;10.074;2023-02-18T00:08:57;3.50;;;2.00;;
1174;SDS011;576;48.418;10.074;2023-02-18T00:11:28;2.50;;;1.40;;
1174;SDS011;576;48.418;10.074;2023-02-18T00:13:58;4.10;;;1.40;;
1174;SDS011;576;48.418;10.074;2023-02-18T00:16:28;2.90;;;2.00;;
1174;SDS011;576;48.418;10.074;2023-02-18T00:18:58;2.60;;;1.87;;
1174;SDS011;576;48.418;10.074;2023-02-18T00:21:29;2.63;;;1.70;;
1174;SDS011;576;48.418;10.074;2023-02-18T00:23:58;1.80;;;1.60;;
1174;SDS011;576;48.418;10.074;2023-02-18T00:26:27;2.23;;;1.60;;
1174;SDS011;576;48.418;10.074;2023-02-18T00:28:55;2.70;;;1.40;;
1174;SDS011;576;48.418;10.074;2023-02-18T00:31:27;2.23;;;1.30;;
1174;SDS011;576;48.418;10.074;2023-02-18T00:33:59;2.30;;;2.00;;
1174;SDS011;576;48.418;10.074;2023-02-18T00:36:30;1.70;;;1.60;;
1174;SDS011;576;48.418;10.074;2023-02-18T00:39:00;1.93;;;1.83;;
1174;SDS011;576;48.418;10.074;2023-02-18T00:41:31;1.80;;;1.70;;
1174;SDS011;576;48.418;10.074;2023-02-18T00:44:00;2.13;;;1.83;;
1174;SDS011;576;48.418;10.074;2023-02-18T00:46:28;1.50;;;1.40;;
1174;SDS011;576;48.418;10.074;2023-02-18T00:48:59;1.70;;;1.60;;
1174;SDS011;576;48.418;10.074;2023-02-18T00:51:27;1.43;;;1.30;;
1174;SDS011;576;48.418;10.074;2023-02-18T00:53:57;2.00;;;1.67;;
1174;SDS011;576;48.418;10.074;2023-02-18T00:56:25;2.50;;;1.37;;
1174;SDS011;576;48.418;10.074;2023-02-18T00:58:54;1.87;;;1.43;;
1174;SDS011;576;48.418;10.074;2023-02-18T01:01:22;2.63;;;1.77;;
1174;SDS011;576;48.418;10.074;2023-02-18T01:03:50;3.00;;;1.70;;
1174;SDS011;576;48.418;10.074;2023-02-18T01:06:19;1.90;;;1.67;;
1174;SDS011;576;48.418;10.074;2023-02-18T01:08:49;1.37;;;1.27;;
1174;SDS011;576;48.418;10.074;2023-02-18T01:11:18;2.20;;;1.80;;
1174;SDS011;576;48.418;10.074;2023-02-18T01:13:46;2.17;;;1.40;;
1174;SDS011;576;48.418;10.074;2023-02-18T01:16:14;1.83;;;1.73;;
1174;SDS011;576;48.418;10.074;2023-02-18T01:18:44;1.80;;;1.57;;
1174;SDS011;576;48.418;10.074;2023-02-18T01:21:13;1.27;;;1.17;;
1174;SDS011;576;48.418;10.074;2023-02-18T01:23:41;2.10;;;1.90;;
1174;SDS011;576;48.418;10.074;2023-02-18T01:26:11;2.10;;;1.10;;
1174;SDS011;576;48.418;10.074;2023-02-18T01:28:39;1.87;;;1.10;;
1174;SDS011;576;48.418;10.074;2023-02-18T01:31:08;1.30;;;1.20;;
1174;SDS011;576;48.418;10.074;2023-02-18T01:33:38;2.33;;;2.13;;
1174;SDS011;576;48.418;10.074;2023-02-18T01:36:06;1.63;;;1.53;;
1174;SDS011;576;48.418;10.074;2023-02-18T01:38:36;1.50;;;1.40;;
1174;SDS011;576;48.418;10.074;2023-02-18T01:41:04;2.50;;;1.20;;
1174;SDS011;576;48.418;10.074;2023-02-18T01:43:34;1.57;;;1.47;;
1174;SDS011;576;48.418;10.074;2023-02-18T01:46:04;1.83;;;1.70;;
1174;SDS011;576;48.418;10.074;2023-02-18T01:48:45;1.60;;;1.50;;
1174;SDS011;576;48.418;10.074;2023-02-18T01:51:19;1.20;;;1.20;;
1174;SDS011;576;48.418;10.074;2023-02-18T01:53:52;1.30;;;1.20;;
1174;SDS011;576;48.418;10.074;2023-02-18T01:56:24;1.30;;;1.20;;
1174;SDS011;576;48.418;10.074;2023-02-18T01:58:59;1.50;;;1.40;;
1174;SDS011;576;48.418;10.074;2023-02-18T02:01:29;2.37;;;1.83;;
1174;SDS011;576;48.418;10.074;2023-02-18T02:03:59;1.63;;;1.53;;
1174;SDS011;576;48.418;10.074;2023-02-18T02:06:29;1.70;;;1.47;;
1174;SDS011;576;48.418;10.074;2023-02-18T02:08:58;1.23;;;1.13;;
1174;SDS011;576;48.418;10.074;2023-02-18T02:11:39;1.37;;;1.27;;
1174;SDS011;576;48.418;10.074;2023-02-18T02:14:24;1.10;;;1.10;;
1174;SDS011;576;48.418;10.074;2023-02-18T02:17:07;1.47;;;1.37;;
1174;SDS011;576;48.418;10.074;2023-02-18T02:29:32;1.80;;;1.23;;
1174;SDS011;576;48.418;10.074;2023-02-18T02:35:49;1.37;;;1.27;;
1174;SDS011;576;48.418;10.074;2023-02-18T02:38:24;2.13;;;1.43;;
1174;SDS011;576;48.418;10.074;2023-02-18T02:41:00;1.60;;;1.50;;
1174;SDS011;576;48.418;10.074;2023-02-18T02:43:37;1.57;;;1.37;;
1174;SDS011;576;48.418;10.074;2023-02-18T02:46:16;1.70;;;1.33;;
1174;SDS011;576;48.418;10.074;2023-02-18T02:48:49;0.93;;;0.90;;
1174;SDS011;576;48.418;10.074;2023-02-18T02:51:27;1.60;;;1.50;;
1174;SDS011;576;48.418;10.074;2023-02-18T02:54:07;1.57;;;1.47;;
1174;SDS011;576;48.418;10.074;2023-02-18T02:56:38;1.10;;;1.10;;
1174;SDS011;576;48.418;10.074;2023-02-18T02:59:09;1.87;;;1.77;;
1174;SDS011;576;48.418;10.074;2023-02-18T03:01:44;1.20;;;1.10;;
1174;SDS011;576;48.418;10.074;2023-02-18T03:04:26;1.50;;;1.40;;
1174;SDS011;576;48.418;10.074;2023-02-18T03:07:30;1.47;;;1.37;;
1174;SDS011;576;48.418;10.074;2023-02-18T03:10:17;2.20;;;1.50;;
1174;SDS011;576;48.418;10.074;2023-02-18T03:13:04;1.10;;;1.00;;
1174;SDS011;576;48.418;10.074;2023-02-18T03:15:42;1.50;;;1.40;;
1174;SDS011;576;48.418;10.074;2023-02-18T03:18:16;1.40;;;1.30;;
1174;SDS011;576;48.418;10.074;2023-02-18T03:20:50;1.37;;;1.27;;
1174;SDS011;576;48.418;10.074;2023-02-18T03:23:23;1.50;;;1.20;;
1174;SDS011;576;48.418;10.074;2023-02-18T03:25:54;1.50;;;1.30;;
1174;SDS011;576;48.418;10.074;2023-02-18T03:28:25;2.13;;;1.50;;
1174;SDS011;576;48.418;10.074;2023-02-18T03:30:58;1.30;;;1.17;;
1174;SDS011;576;48.418;10.074;2023-02-18T03:33:32;1.40;;;1.30;;
1174;SDS011;576;48.418;10.074;2023-02-18T03:36:04;0.93;;;0.90;;
1174;SDS011;576;48.418;10.074;2023-02-18T03:38:37;1.40;;;1.30;;
1174;SDS011;576;48.418;10.074;2023-02-18T03:41:08;1.33;;;1.23;;
1174;SDS011;576;48.418;10.074;2023-02-18T03:43:38;1.23;;;1.10;;
1174;SDS011;576;48.418;10.074;2023-02-18T03:46:07;1.37;;;1.27;;
1174;SDS011;576;48.418;10.074;2023-02-18T03:48:35;1.10;;;1.10;;
1174;SDS011;576;48.418;10.074;2023-02-18T03:51:04;1.00;;;1.00;;
1174;SDS011;576;48.418;10.074;2023-02-18T03:53:32;1.20;;;1.10;;
1174;SDS011;576;48.418;10.074;2023-02-18T03:56:02;1.30;;;1.20;;
1174;SDS011;576;48.418;10.074;2023-02-18T03:58:31;1.00;;;1.00;;
1174;SDS011;576;48.418;10.074;2023-02-18T04:00:59;1.30;;;1.20;;
1174;SDS011;576;48.418;10.074;2023-02-18T04:03:27;1.03;;;1.03;;
1174;SDS011;576;48.418;10.074;2023-02-18T04:05:56;1.20;;;1.10;;
1174;SDS011;576;48.418;10.074;2023-02-18T04:08:24;1.37;;;1.10;;
1174;SDS011;576;48.418;10.074;2023-02-18T04:10:52;1.40;;;1.30;;
1174;SDS011;576;48.418;10.074;2023-02-18T04:13:22;1.40;;;1.30;;
1174;SDS011;576;48.418;10.074;2023-02-18T04:15:50;1.60;;;1.50;;
1174;SDS011;576;48.418;10.074;2023-02-18T04:18:18;1.30;;;1.20;;
1174;SDS011;576;48.418;10.074;2023-02-18T04:20:47;1.40;;;1.30;;
1174;SDS011;576;48.418;10.074;2023-02-18T04:23:16;2.93;;;0.97;;
1174;SDS011;576;48.418;10.074;2023-02-18T04:25:44;2.10;;;1.10;;
1174;SDS011;576;48.418;10.074;2023-02-18T04:28:13;0.70;;;0.70;;
1174;SDS011;576;48.418;10.074;2023-02-18T04:30:43;3.53;;;1.10;;
1174;SDS011;576;48.418;10.074;2023-02-18T04:33:13;0.83;;;0.83;;
1174;SDS011;576;48.418;10.074;2023-02-18T04:35:41;1.07;;;1.03;;
1174;SDS011;576;48.418;10.074;2023-02-18T04:38:09;1.10;;;1.00;;
1174;SDS011;576;48.418;10.074;2023-02-18T04:40:38;0.97;;;0.97;;
1174;SDS011;576;48.418;10.074;2023-02-18T04:43:06;0.70;;;0.70;;
1174;SDS011;576;48.418;10.074;2023-02-18T04:45:34;1.07;;;1.07;;
1174;SDS011;576;48.418;10.074;2023-02-18T04:48:04;1.00;;;1.00;;
1174;SDS011;576;48.418;10.074;2023-02-18T04:50:34;1.33;;;1.10;;
1174;SDS011;576;48.418;10.074;2023-02-18T04:53:02;1.50;;;1.40;;
1174;SDS011;576;48.418;10.074;2023-02-18T04:55:30;1.23;;;1.13;;
1174;SDS011;576;48.418;10.074;2023-02-18T04:57:58;1.07;;;1.07;;
1174;SDS011;576;48.418;10.074;2023-02-18T05:00:26;1.20;;;1.10;;
1174;SDS011;576;48.418;10.074;2023-02-18T05:02:55;1.00;;;0.90;;
1174;SDS011;576;48.418;10.074;2023-02-18T05:05:24;1.63;;;1.37;;
1174;SDS011;576;48.418;10.074;2023-02-18T05:07:52;1.13;;;1.03;;
1174;SDS011;576;48.418;10.074;2023-02-18T05:10:20;1.20;;;1.10;;
1174;SDS011;576;48.418;10.074;2023-02-18T05:12:48;0.97;;;0.90;;
1174;SDS011;576;48.418;10.074;2023-02-18T05:15:17;1.13;;;1.00;;
1174;SDS011;576;48.418;10.074;2023-02-18T05:17:45;1.43;;;1.33;;
1174;SDS011;576;48.418;10.074;2023-02-18T05:20:13;1.60;;;1.03;;
1174;SDS011;576;48.418;10.074;2023-02-18T05:22:42;0.80;;;0.80;;
1174;SDS011;576;48.418;10.074;2023-02-18T05:25:11;1.03;;;0.93;;
1174;SDS011;576;48.418;10.074;2023-02-18T05:27:39;0.80;;;0.80;;
1174;SDS011;576;48.418;10.074;2023-02-18T05:30:07;1.00;;;1.00;;
1174;SDS011;576;48.418;10.074;2023-02-18T05:32:36;0.90;;;0.90;;
1174;SDS011;576;48.418;10.074;2023-02-18T05:35:04;1.03;;;1.03;;
1174;SDS011;576;48.418;10.074;2023-02-18T05:37:33;0.83;;;0.80;;
1174;SDS011;576;48.418;10.074;2023-02-18T05:40:03;1.17;;;1.07;;
1174;SDS011;576;48.418;10.074;2023-02-18T05:42:32;0.80;;;0.80;;
1174;SDS011;576;48.418;10.074;2023-02-18T05:45:00;0.80;;;0.80;;
1174;SDS011;576;48.418;10.074;2023-02-18T05:47:27;0.90;;;0.90;;
1174;SDS011;576;48.418;10.074;2023-02-18T05:49:55;1.07;;;0.90;;
1174;SDS011;576;48.418;10.074;2023-02-18T05:52:23;1.00;;;0.90;;
1174;SDS011;576;48.418;10.074;2023-02-18T05:54:51;1.60;;;1.10;;
1174;SDS011;576;48.418;10.074;2023-02-18T05:57:21;1.10;;;1.00;;
1174;SDS011;576;48.418;10.074;2023-02-18T05:59:49;1.00;;;1.00;;
1174;SDS011;576;48.418;10.074;2023-02-18T06:02:17;1.23;;;1.00;;
1174;SDS011;576;48.418;10.074;2023-02-18T06:04:45;1.07;;;0.97;;
1174;SDS011;576;48.418;10.074;2023-02-18T06:07:14;1.00;;;0.73;;
1174;SDS011;576;48.418;10.074;2023-02-18T06:09:42;0.87;;;0.87;;
1174;SDS011;576;48.418;10.074;2023-02-18T06:12:10;0.80;;;0.80;;
1174;SDS011;576;48.418;10.074;2023-02-18T06:14:40;1.53;;;1.13;;
1174;SDS011;576;48.418;10.074;2023-02-18T06:17:08;0.90;;;0.90;;
1174;SDS011;576;48.418;10.074;2023-02-18T06:19:37;1.77;;;1.00;;
1174;SDS011;576;48.418;10.074;2023-02-18T06:22:06;0.93;;;0.90;;
1174;SDS011;576;48.418;10.074;2023-02-18T06:24:34;2.10;;;1.00;;
1174;SDS011;576;48.418;10.074;2023-02-18T06:27:03;0.80;;;0.80;;
1174;SDS011;576;48.418;10.074;2023-02-18T06:29:31;1.20;;;1.20;;
1174;SDS011;576;48.418;10.074;2023-02-18T06:32:02;0.90;;;0.90;;
1174;SDS011;576;48.418;10.074;2023-02-18T06:34:31;0.97;;;0.93;;
1174;SDS011;576;48.418;10.074;2023-02-18T06:36:59;1.27;;;1.00;;
1174;SDS011;576;48.418;10.074;2023-02-18T06:39:27;1.07;;;1.00;;
1174;SDS011;576;48.418;10.074;2023-02-18T06:41:55;0.90;;;0.90;;
1174;SDS011;576;48.418;10.074;2023-02-18T06:44:24;0.90;;;0.90;;
1174;SDS011;576;48.418;10.074;2023-02-18T06:46:52;3.47;;;1.00;;
1174;SDS011;576;48.418;10.074;2023-02-18T06:49:21;0.83;;;0.83;;
1174;SDS011;576;48.418;10.074;2023-02-18T06:51:49;1.10;;;1.00;;
1174;SDS011;576;48.418;10.074;2023-02-18T06:54:18;3.03;;;0.90;;
1174;SDS011;576;48.418;10.074;2023-02-18T06:56:46;0.70;;;0.70;;
1174;SDS011;576;48.418;10.074;2023-02-18T06:59:14;1.03;;;0.93;;
1174;SDS011;576;48.418;10.074;2023-02-18T07:01:43;0.83;;;0.80;;
1174;SDS011;576;48.418;10.074;2023-02-18T07:04:11;3.60;;;1.00;;
1174;SDS011;576;48.418;10.074;2023-02-18T07:06:41;2.20;;;0.70;;
1174;SDS011;576;48.418;10.074;2023-02-18T07:09:09;1.40;;;0.90;;
1174;SDS011;576;48.418;10.074;2023-02-18T07:11:37;0.90;;;0.90;;
1174;SDS011;576;48.418;10.074;2023-02-18T07:14:05;1.63;;;0.70;;
1174;SDS011;576;48.418;10.074;2023-02-18T07:16:33;1.07;;;0.77;;
1174;SDS011;576;48.418;10.074;2023-02-18T07:19:02;0.80;;;0.80;;
1174;SDS011;576;48.418;10.074;2023-02-18T07:21:32;0.70;;;0.70;;
1174;SDS011;576;48.418;10.074;2023-02-18T07:24:02;1.00;;;0.90;;
1174;SDS011;576;48.418;10.074;2023-02-18T07:26:31;1.00;;;1.00;;
1174;SDS011;576;48.418;10.074;2023-02-18T07:28:59;0.70;;;0.70;;
1174;SDS011;576;48.418;10.074;2023-02-18T07:31:27;0.73;;;0.73;;
1174;SDS011;576;48.418;10.074;2023-02-18T07:33:55;0.80;;;0.80;;
1174;SDS011;576;48.418;10.074;2023-02-18T07:36:23;1.17;;;1.07;;
1174;SDS011;576;48.418;10.074;2023-02-18T07:38:51;2.57;;;0.87;;
1174;SDS011;576;48.418;10.074;2023-02-18T07:41:21;0.70;;;0.70;;
1174;SDS011;576;48.418;10.074;2023-02-18T07:43:50;2.40;;;0.93;;
1174;SDS011;576;48.418;10.074;2023-02-18T07:46:18;0.57;;;0.57;;
1174;SDS011;576;48.418;10.074;2023-02-18T07:48:46;1.00;;;0.90;;
1174;SDS011;576;48.418;10.074;2023-02-18T07:51:14;0.83;;;0.83;;
1174;SDS011;576;48.418;10.074;2023-02-18T07:53:42;0.70;;;0.70;;
1174;SDS011;576;48.418;10.074;2023-02-18T07:56:10;4.67;;;0.80;;
1174;SDS011;576;48.418;10.074;2023-02-18T07:58:40;1.43;;;0.87;;
1174;SDS011;576;48.418;10.074;2023-02-18T08:01:09;1.20;;;1.10;;
1174;SDS011;576;48.418;10.074;2023-02-18T08:03:40;0.70;;;0.70;;
1174;SDS011;576;48.418;10.074;2023-02-18T08:06:12;0.73;;;0.70;;
1174;SDS011;576;48.418;10.074;2023-02-18T08:08:47;1.17;;;0.90;;
1174;SDS011;576;48.418;10.074;2023-02-18T08:11:15;1.10;;;0.90;;
1174;SDS011;576;48.418;10.074;2023-02-18T08:13:46;0.60;;;0.60;;
1174;SDS011;576;48.418;10.074;2023-02-18T08:16:15;0.80;;;0.70;;
1174;SDS011;576;48.418;10.074;2023-02-18T08:18:44;1.00;;;1.00;;
1174;SDS011;576;48.418;10.074;2023-02-18T08:21:13;0.80;;;0.80;;
1174;SDS011;576;48.418;10.074;2023-02-18T08:23:42;1.60;;;0.87;;
1174;SDS011;576;48.418;10.074;2023-02-18T08:26:11;3.03;;;1.00;;
1174;SDS011;576;48.418;10.074;2023-02-18T08:28:40;1.10;;;0.73;;
1174;SDS011;576;48.418;10.074;2023-02-18T08:31:14;0.60;;;0.60;;
1174;SDS011;576;48.418;10.074;2023-02-18T08:33:44;0.70;;;0.70;;
1174;SDS011;576;48.418;10.074;2023-02-18T08:36:13;0.50;;;0.50;;
1174;SDS011;576;48.418;10.074;2023-02-18T08:38:42;0.63;;;0.63;;
1174;SDS011;576;48.418;10.074;2023-02-18T08:41:10;0.60;;;0.60;;
1174;SDS011;576;48.418;10.074;2023-02-18T08:43:39;0.90;;;0.90;;
1174;SDS011;576;48.418;10.074;2023-02-18T08:46:08;0.63;;;0.63;;
1174;SDS011;576;48.418;10.074;2023-02-18T08:48:51;0.97;;;0.57;;
1174;SDS011;576;48.418;10.074;2023-02-18T08:51:20;0.80;;;0.80;;
1174;SDS011;576;48.418;10.074;2023-02-18T08:53:49;0.67;;;0.67;;
1174;SDS011;576;48.418;10.074;2023-02-18T08:56:18;0.70;;;0.60;;
1174;SDS011;576;48.418;10.074;2023-02-18T08:58:46;0.60;;;0.60;;
1174;SDS011;576;48.418;10.074;2023-02-18T09:01:14;0.67;;;0.67;;
1174;SDS011;576;48.418;10.074;2023-02-18T09:03:42;0.70;;;0.70;;
1174;SDS011;576;48.418;10.074;2023-02-18T09:06:12;0.67;;;0.50;;
1174;SDS011;576;48.418;10.074;2023-02-18T09:08:40;2.20;;;0.80;;
1174;SDS011;576;48.418;10.074;2023-02-18T09:11:08;1.37;;;0.80;;
1174;SDS011;576;48.418;10.074;2023-02-18T09:13:37;0.80;;;0.80;;
1174;SDS011;576;48.418;10.074;2023-02-18T09:16:06;0.70;;;0.70;;
1174;SDS011;576;48.418;10.074;2023-02-18T09:18:37;0.80;;;0.80;;
1174;SDS011;576;48.418;10.074;2023-02-18T09:21:05;0.97;;;0.70;;
1174;SDS011;576;48.418;10.074;2023-02-18T09:23:37;1.10;;;1.07;;
1174;SDS011;576;48.418;10.074;2023-02-18T09:26:06;2.07;;;0.90;;
1174;SDS011;576;48.418;10.074;2023-02-18T09:28:36;2.00;;;0.87;;
1174;SDS011;576;48.418;10.074;2023-02-18T09:31:05;0.80;;;0.80;;
1174;SDS011;576;48.418;10.074;2023-02-18T09:33:35;1.97;;;1.10;;
1174;SDS011;576;48.418;10.074;2023-02-18T09:36:06;2.07;;;0.77;;
1174;SDS011;576;48.418;10.074;2023-02-18T09:38:34;1.30;;;0.90;;
1174;SDS011;576;48.418;10.074;2023-02-18T09:41:05;1.27;;;0.77;;
1174;SDS011;576;48.418;10.074;2023-02-18T09:43:41;3.73;;;1.20;;
1174;SDS011;576;48.418;10.074;2023-02-18T09:46:13;3.00;;;1.37;;
1174;SDS011;576;48.418;10.074;2023-02-18T09:48:46;4.33;;;1.30;;
1174;SDS011;576;48.418;10.074;2023-02-18T09:51:15;1.90;;;1.00;;
1174;SDS011;576;48.418;10.074;2023-02-18T09:53:46;2.20;;;1.10;;
1174;SDS011;576;48.418;10.074;2023-02-18T09:56:16;2.30;;;0.90;;
1174;SDS011;576;48.418;10.074;2023-02-18T09:58:48;2.17;;;1.03;;
1174;SDS011;576;48.418;10.074;2023-02-18T10:01:19;2.40;;;1.10;;
1174;SDS011;576;48.418;10.074;2023-02-18T10:03:52;4.47;;;1.10;;
1174;SDS011;576;48.418;10.074;2023-02-18T10:06:21;6.90;;;1.30;;
1174;SDS011;576;48.418;10.074;2023-02-18T10:08:54;2.17;;;1.07;;
1174;SDS011;576;48.418;10.074;2023-02-18T10:11:27;4.23;;;0.90;;
1174;SDS011;576;48.418;10.074;2023-02-18T10:13:58;2.23;;;1.33;;
1174;SDS011;576;48.418;10.074;2023-02-18T10:16:28;1.90;;;1.17;;
1174;SDS011;576;48.418;10.074;2023-02-18T10:18:57;2.20;;;1.37;;
1174;SDS011;576;48.418;10.074;2023-02-18T10:21:31;3.80;;;1.47;;
1174;SDS011;576;48.418;10.074;2023-02-18T10:24:04;7.50;;;1.40;;
1174;SDS011;576;48.418;10.074;2023-02-18T10:26:42;2.30;;;1.37;;
1174;SDS011;576;48.418;10.074;2023-02-18T10:29:12;5.30;;;1.40;;
1174;SDS011;576;48.418;10.074;2023-02-18T10:31:48;3.23;;;1.67;;
1174;SDS011;576;48.418;10.074;2023-02-18T10:34:27;3.10;;;1.13;;
1174;SDS011;576;48.418;10.074;2023-02-18T10:37:08;1.57;;;1.10;;
1174;SDS011;576;48.418;10.074;2023-02-18T10:39:58;7.60;;;1.10;;
1174;SDS011;576;48.418;10.074;2023-02-18T10:42:35;3.87;;;1.40;;
1174;SDS011;576;48.418;10.074;2023-02-18T10:45:18;4.10;;;1.60;;
1174;SDS011;576;48.418;10.074;2023-02-18T10:47:58;6.23;;;2.27;;
1174;SDS011;576;48.418;10.074;2023-02-18T10:50:41;5.03;;;2.20;;
1174;SDS011;576;48.418;10.074;2023-02-18T10:53:11;3.83;;;1.50;;
1174;SDS011;576;48.418;10.074;2023-02-18T10:55:45;3.23;;;1.40;;
1174;SDS011;576;48.418;10.074;2023-02-18T10:58:31;4.40;;;1.77;;
1174;SDS011;576;48.418;10.074;2023-02-18T11:01:02;4.33;;;1.83;;
1174;SDS011;576;48.418;10.074;2023-02-18T11:03:38;5.00;;;2.17;;
1174;SDS011;576;48.418;10.074;2023-02-18T11:06:14;2.47;;;2.00;;
1174;SDS011;576;48.418;10.074;2023-02-18T11:08:46;4.33;;;1.53;;
1174;SDS011;576;48.418;10.074;2023-02-18T11:11:22;3.43;;;2.30;;
1174;SDS011;576;48.418;10.074;2023-02-18T11:13:56;6.00;;;1.93;;
1174;SDS011;576;48.418;10.074;2023-02-18T11:16:35;3.90;;;1.83;;
1174;SDS011;576;48.418;10.074;2023-02-18T11:19:05;5.10;;;1.73;;
1174;SDS011;576;48.418;10.074;2023-02-18T11:22:05;8.23;;;2.03;;
1174;SDS011;576;48.418;10.074;2023-02-18T11:24:37;4.93;;;2.00;;
1174;SDS011;576;48.418;10.074;2023-02-18T11:27:08;5.37;;;1.90;;
1174;SDS011;576;48.418;10.074;2023-02-18T11:29:39;2.80;;;1.60;;
1174;SDS011;576;48.418;10.074;2023-02-18T11:32:09;4.97;;;2.70;;
1174;SDS011;576;48.418;10.074;2023-02-18T11:34:40;6.23;;;2.33;;
1174;SDS011;576;48.418;10.074;2023-02-18T11:37:11;3.80;;;1.40;;
1174;SDS011;576;48.418;10.074;2023-02-18T11:39:45;3.30;;;1.97;;
1174;SDS011;576;48.418;10.074;2023-02-18T11:42:17;5.63;;;2.13;;
1174;SDS011;576;48.418;10.074;2023-02-18T11:44:48;3.73;;;1.93;;
1174;SDS011;576;48.418;10.074;2023-02-18T11:47:20;4.70;;;2.07;;
1174;SDS011;576;48.418;10.074;2023-02-18T11:50:01;5.37;;;2.10;;
1174;SDS011;576;48.418;10.074;2023-02-18T11:52:45;6.30;;;1.60;;
1174;SDS011;576;48.418;10.074;2023-02-18T11:55:15;4.47;;;2.00;;
1174;SDS011;576;48.418;10.074;2023-02-18T11:57:48;4.50;;;1.90;;
1174;SDS011;576;48.418;10.074;2023-02-18T12:00:23;6.40;;;2.23;;
1174;SDS011;576;48.418;10.074;2023-02-18T12:02:56;3.13;;;2.27;;
1174;SDS011;576;48.418;10.074;2023-02-18T12:05:29;3.47;;;1.73;;
1174;SDS011;576;48.418;10.074;2023-02-18T12:08:00;4.93;;;2.00;;
1174;SDS011;576;48.418;10.074;2023-02-18T12:10:34;4.43;;;2.00;;
1174;SDS011;576;48.418;10.074;2023-02-18T12:13:12;5.33;;;2.43;;
1174;SDS011;576;48.418;10.074;2023-02-18T12:15:51;7.40;;;1.80;;
1174;SDS011;576;48.418;10.074;2023-02-18T12:18:40;4.13;;;1.53;;
1174;SDS011;576;48.418;10.074;2023-02-18T12:21:23;6.17;;;2.03;;
1174;SDS011;576;48.418;10.074;2023-02-18T12:24:01;4.20;;;1.57;;
1174;SDS011;576;48.418;10.074;2023-02-18T12:26:43;2.77;;;1.63;;
1174;SDS011;576;48.418;10.074;2023-02-18T12:29:29;3.53;;;2.50;;
1174;SDS011;576;48.418;10.074;2023-02-18T12:32:30;3.87;;;1.70;;
1174;SDS011;576;48.418;10.074;2023-02-18T12:35:10;2.87;;;1.83;;
1174;SDS011;576;48.418;10.074;2023-02-18T12:38:05;6.13;;;1.90;;
1174;SDS011;576;48.418;10.074;2023-02-18T12:40:52;6.63;;;2.43;;
1174;SDS011;576;48.418;10.074;2023-02-18T12:43:35;4.10;;;1.70;;
1174;SDS011;576;48.418;10.074;2023-02-18T12:46:18;3.90;;;1.60;;
1174;SDS011;576;48.418;10.074;2023-02-18T12:49:00;4.87;;;2.23;;
1174;SDS011;576;48.418;10.074;2023-02-18T12:51:39;5.07;;;1.90;;
1174;SDS011;576;48.418;10.074;2023-02-18T12:54:24;2.83;;;1.80;;
1174;SDS011;576;48.418;10.074;2023-02-18T13:00:00;4.57;;;2.60;;
1174;SDS011;576;48.418;10.074;2023-02-18T13:05:55;5.07;;;2.10;;
1174;SDS011;576;48.418;10.074;2023-02-18T13:08:33;3.60;;;2.23;;
1174;SDS011;576;48.418;10.074;2023-02-18T13:11:15;4.53;;;1.93;;
1174;SDS011;576;48.418;10.074;2023-02-18T13:13:53;2.70;;;1.63;;
1174;SDS011;576;48.418;10.074;2023-02-18T13:16:27;2.33;;;1.40;;
1174;SDS011;576;48.418;10.074;2023-02-18T13:18:58;6.57;;;1.67;;
1174;SDS011;576;48.418;10.074;2023-02-18T13:21:31;2.60;;;1.10;;
1174;SDS011;576;48.418;10.074;2023-02-18T13:24:00;6.50;;;1.83;;
1174;SDS011;576;48.418;10.074;2023-02-18T13:26:31;4.60;;;2.47;;
1174;SDS011;576;48.418;10.074;2023-02-18T13:29:06;6.13;;;2.07;;
1174;SDS011;576;48.418;10.074;2023-02-18T13:31:46;2.47;;;1.40;;
1174;SDS011;576;48.418;10.074;2023-02-18T13:34:27;2.63;;;1.57;;
1174;SDS011;576;48.418;10.074;2023-02-18T13:37:05;3.77;;;1.70;;
1174;SDS011;576;48.418;10.074;2023-02-18T13:39:38;2.97;;;1.60;;
1174;SDS011;576;48.418;10.074;2023-02-18T13:42:24;3.10;;;1.70;;
1174;SDS011;576;48.418;10.074;2023-02-18T13:47:58;3.37;;;1.50;;
1174;SDS011;576;48.418;10.074;2023-02-18T13:50:28;3.33;;;1.43;;
1174;SDS011;576;48.418;10.074;2023-02-18T13:56:04;2.03;;;1.23;;
1174;SDS011;576;48.418;10.074;2023-02-18T13:58:37;3.30;;;1.30;;
1174;SDS011;576;48.418;10.074;2023-02-18T14:01:13;2.20;;;1.17;;
1174;SDS011;576;48.418;10.074;2023-02-18T14:04:00;2.03;;;1.20;;
1174;SDS011;576;48.418;10.074;2023-02-18T14:06:30;3.97;;;1.60;;
1174;SDS011;576;48.418;10.074;2023-02-18T14:09:15;3.43;;;1.17;;
1174;SDS011;576;48.418;10.074;2023-02-18T14:12:15;2.30;;;1.20;;
1174;SDS011;576;48.418;10.074;2023-02-18T14:14:51;2.10;;;1.33;;
1174;SDS011;576;48.418;10.074;2023-02-18T14:17:30;3.93;;;1.23;;
1174;SDS011;576;48.418;10.074;2023-02-18T14:20:27;1.60;;;1.50;;
1174;SDS011;576;48.418;10.074;2023-02-18T14:26:31;2.23;;;1.57;;
1174;SDS011;576;48.418;10.074;2023-02-18T14:29:05;2.00;;;1.23;;
1174;SDS011;576;48.418;10.074;2023-02-18T14:31:46;2.40;;;1.30;;
1174;SDS011;576;48.418;10.074;2023-02-18T14:34:33;3.07;;;1.30;;
1174;SDS011;576;48.418;10.074;2023-02-18T14:37:32;2.00;;;1.20;;
1174;SDS011;576;48.418;10.074;2023-02-18T14:40:22;2.50;;;1.27;;
1174;SDS011;576;48.418;10.074;2023-02-18T14:43:06;3.37;;;1.17;;
1174;SDS011;576;48.418;10.074;2023-02-18T14:45:49;1.40;;;1.30;;
1174;SDS011;576;48.418;10.074;2023-02-18T14:48:44;1.80;;;1.10;;
1174;SDS011;576;48.418;10.074;2023-02-18T14:51:24;0.87;;;0.87;;
1174;SDS011;576;48.418;10.074;2023-02-18T14:53:54;1.77;;;1.23;;
1174;SDS011;576;48.418;10.074;2023-02-18T14:56:23;1.47;;;1.37;;
1174;SDS011;576;48.418;10.074;2023-02-18T14:58:54;1.23;;;1.10;;
1174;SDS011;576;48.418;10.074;2023-02-18T15:01:27;1.70;;;1.40;;
1174;SDS011;576;48.418;10.074;2023-02-18T15:03:57;2.73;;;1.50;;
1174;SDS011;576;48.418;10.074;2023-02-18T15:06:27;3.37;;;1.40;;
1174;SDS011;576;48.418;10.074;2023-02-18T15:08:57;1.93;;;1.70;;
1174;SDS011;576;48.418;10.074;2023-02-18T15:11:30;4.40;;;1.23;;
1174;SDS011;576;48.418;10.074;2023-02-18T15:14:04;2.47;;;1.30;;
1174;SDS011;576;48.418;10.074;2023-02-18T15:16:37;1.13;;;1.00;;
1174;SDS011;576;48.418;10.074;2023-02-18T15:19:06;2.63;;;1.10;;
1174;SDS011;576;48.418;10.074;2023-02-18T15:21:42;1.90;;;1.43;;
1174;SDS011;576;48.418;10.074;2023-02-18T15:24:22;2.43;;;1.47;;
1174;SDS011;576;48.418;10.074;2023-02-18T15:26:53;1.50;;;1.40;;
1174;SDS011;576;48.418;10.074;2023-02-18T15:29:24;2.50;;;1.43;;
1174;SDS011;576;48.418;10.074;2023-02-18T15:31:55;3.27;;;1.67;;
1174;SDS011;576;48.418;10.074;2023-02-18T15:34:34;3.33;;;1.70;;
1174;SDS011;576;48.418;10.074;2023-02-18T15:37:04;3.70;;;1.60;;
1174;SDS011;576;48.418;10.074;2023-02-18T15:39:33;2.40;;;1.70;;
1174;SDS011;576;48.418;10.074;2023-02-18T15:42:05;6.13;;;1.50;;
1174;SDS011;576;48.418;10.074;2023-02-18T15:44:37;2.73;;;1.90;;
1174;SDS011;576;48.418;10.074;2023-02-18T15:47:11;2.50;;;1.67;;
1174;SDS011;576;48.418;10.074;2023-02-18T15:49:43;5.03;;;1.70;;
1174;SDS011;576;48.418;10.074;2023-02-18T15:52:14;2.80;;;1.60;;
1174;SDS011;576;48.418;10.074;2023-02-18T15:54:42;3.97;;;1.73;;
1174;SDS011;576;48.418;10.074;2023-02-18T15:57:12;1.33;;;1.23;;
1174;SDS011;576;48.418;10.074;2023-02-18T15:59:46;1.40;;;1.30;;
1174;SDS011;576;48.418;10.074;2023-02-18T16:02:22;2.47;;;1.33;;
1174;SDS011;576;48.418;10.074;2023-02-18T16:04:56;2.67;;;1.60;;
1174;SDS011;576;48.418;10.074;2023-02-18T16:07:26;2.20;;;1.53;;
1174;SDS011;576;48.418;10.074;2023-02-18T16:10:14;2.40;;;1.60;;
1174;SDS011;576;48.418;10.074;2023-02-18T16:12:48;2.50;;;1.67;;
1174;SDS011;576;48.418;10.074;2023-02-18T16:15:22;2.57;;;1.60;;
1174;SDS011;576;48.418;10.074;2023-02-18T16:17:54;1.83;;;1.73;;